createdAt,value
2019-02-11T00:02:40.544Z,4.61
2019-02-11T00:05:43.130Z,4.60
2019-02-11T00:08:45.755Z,4.54
2019-02-11T00:11:48.335Z,4.53
2019-02-11T00:14:51.172Z,4.59
2019-02-11T00:17:53.855Z,4.60
2019-02-11T00:20:56.593Z,4.56
2019-02-11T00:23:59.212Z,4.52
2019-02-11T00:27:01.967Z,4.56
2019-02-11T00:30:04.871Z,4.54
2019-02-11T00:33:07.628Z,4.48
2019-02-11T00:36:12.007Z,4.52
2019-02-11T00:39:14.598Z,4.52
2019-02-11T00:42:17.198Z,4.48
2019-02-11T00:45:19.913Z,4.58
2019-02-11T00:48:22.510Z,4.59
2019-02-11T00:51:25.134Z,4.60
2019-02-11T00:54:27.904Z,4.57
2019-02-11T00:57:31.614Z,4.58
2019-02-11T01:00:34.231Z,4.59
2019-02-11T01:03:37.108Z,4.64
2019-02-11T01:06:41.552Z,4.63
2019-02-11T01:09:44.351Z,4.68
2019-02-11T01:12:47.080Z,4.75
2019-02-11T01:15:49.777Z,4.72
2019-02-11T01:18:52.493Z,4.79
2019-02-11T01:21:55.262Z,4.82
2019-02-11T01:24:57.864Z,4.84
2019-02-11T01:28:00.576Z,4.84
2019-02-11T01:31:03.198Z,4.82
2019-02-11T01:34:05.849Z,4.78
2019-02-11T01:37:08.553Z,4.71
2019-02-11T01:40:11.258Z,4.75
2019-02-11T01:43:13.953Z,4.71
2019-02-11T01:46:16.501Z,4.77
2019-02-11T01:49:19.198Z,4.82
2019-02-11T01:52:21.914Z,4.86
2019-02-11T01:55:24.483Z,4.80
2019-02-11T01:58:27.248Z,4.72
2019-02-11T02:01:29.994Z,4.64
2019-02-11T02:04:32.723Z,4.67
2019-02-11T02:07:35.297Z,4.67
2019-02-11T02:10:37.836Z,4.76
2019-02-11T02:13:44.837Z,4.83
2019-02-11T02:16:45.207Z,4.89
2019-02-11T02:19:47.806Z,4.88
2019-02-11T02:22:50.523Z,4.96
2019-02-11T02:25:53.260Z,4.92
2019-02-11T02:28:56.068Z,4.94
2019-02-11T02:31:58.830Z,4.96
2019-02-11T02:35:02.366Z,4.90
2019-02-11T02:38:04.999Z,4.94
2019-02-11T02:41:07.937Z,4.96
2019-02-11T02:44:10.598Z,4.93
2019-02-11T02:47:13.317Z,4.90
2019-02-11T02:50:16.092Z,4.93
2019-02-11T02:53:18.783Z,4.95
2019-02-11T02:56:21.546Z,4.95
2019-02-11T02:59:24.174Z,4.96
2019-02-11T03:02:26.878Z,4.90
2019-02-11T03:05:29.566Z,4.81
2019-02-11T03:08:32.367Z,4.69
2019-02-11T03:11:34.985Z,4.62
2019-02-11T03:14:37.758Z,4.56
2019-02-11T03:17:40.351Z,4.44
2019-02-11T03:20:43.085Z,4.51
2019-02-11T03:23:45.797Z,4.46
2019-02-11T03:26:48.478Z,4.51
2019-02-11T03:29:51.132Z,4.46
2019-02-11T03:32:53.907Z,4.44
2019-02-11T03:35:56.652Z,4.43
2019-02-11T03:38:59.298Z,4.46
2019-02-11T03:42:01.893Z,4.56
2019-02-11T03:45:05.433Z,4.66
2019-02-11T03:48:08.312Z,4.56
2019-02-11T03:51:10.943Z,4.46
2019-02-11T03:54:13.653Z,4.37
2019-02-11T03:57:16.234Z,4.44
2019-02-11T04:00:18.909Z,4.46
2019-02-11T04:03:21.696Z,4.48
2019-02-11T04:06:24.387Z,4.52
2019-02-11T04:09:27.072Z,4.53
2019-02-11T04:12:29.698Z,4.61
2019-02-11T04:15:32.486Z,4.53
2019-02-11T04:18:35.107Z,4.51
2019-02-11T04:21:37.791Z,4.49
2019-02-11T04:24:40.460Z,4.46
2019-02-11T04:27:43.206Z,4.47
2019-02-11T04:30:46.171Z,4.51
2019-02-11T04:33:48.850Z,4.56
2019-02-11T04:36:51.435Z,4.65
2019-02-11T04:39:54.190Z,4.60
2019-02-11T04:42:56.952Z,4.63
2019-02-11T04:45:59.635Z,4.68
2019-02-11T04:49:02.355Z,4.76
2019-02-11T04:52:05.075Z,4.77
2019-02-11T04:55:07.918Z,4.79
2019-02-11T04:58:11.730Z,4.82
2019-02-11T05:01:14.376Z,4.75
2019-02-11T05:04:17.050Z,4.67
2019-02-11T05:07:19.826Z,4.66
2019-02-11T05:10:22.476Z,4.57
2019-02-11T05:13:25.172Z,4.71
2019-02-11T05:16:27.840Z,4.81
2019-02-11T05:19:30.546Z,4.81
2019-02-11T05:22:33.103Z,4.75
2019-02-11T05:25:35.752Z,4.84
2019-02-11T05:28:38.440Z,4.89
2019-02-11T05:31:41.071Z,4.86
2019-02-11T05:34:43.673Z,4.81
2019-02-11T05:37:46.425Z,4.83
2019-02-11T05:40:49.092Z,4.80
2019-02-11T05:43:51.750Z,4.80
2019-02-11T05:46:54.456Z,4.77
2019-02-11T05:49:57.077Z,4.74
2019-02-11T05:52:59.721Z,4.75
2019-02-11T05:56:02.586Z,4.90
2019-02-11T05:59:05.247Z,4.82
2019-02-11T06:02:07.910Z,4.73
2019-02-11T06:05:10.453Z,4.76
2019-02-11T06:08:13.105Z,4.66
2019-02-11T06:11:15.801Z,4.74
2019-02-11T06:14:18.466Z,4.66
2019-02-11T06:17:21.065Z,4.73
2019-02-11T06:20:23.780Z,4.71
2019-02-11T06:23:26.532Z,4.67
2019-02-11T06:26:29.172Z,4.71
2019-02-11T06:29:31.786Z,4.67
2019-02-11T06:32:34.637Z,4.64
2019-02-11T06:35:38.364Z,4.62
2019-02-11T06:38:41.019Z,4.78
2019-02-11T06:41:43.807Z,4.65
2019-02-11T06:44:46.605Z,4.66
2019-02-11T06:47:49.296Z,4.57
2019-02-11T06:50:51.916Z,4.61
2019-02-11T06:53:54.495Z,4.51
2019-02-11T06:56:57.361Z,4.57
2019-02-11T07:00:00.091Z,4.52
2019-02-11T07:03:03.118Z,4.49
2019-02-11T07:06:05.939Z,4.54
2019-02-11T07:09:08.712Z,4.54
2019-02-11T07:12:11.310Z,4.34
2019-02-11T07:15:21.577Z,4.28
2019-02-11T07:18:18.746Z,4.36
2019-02-11T07:21:21.490Z,4.34
2019-02-11T07:24:24.059Z,4.36
2019-02-11T07:27:26.796Z,4.45
2019-02-11T07:30:29.409Z,4.53
2019-02-11T07:33:32.763Z,4.56
2019-02-11T07:36:35.411Z,4.61
2019-02-11T07:39:38.291Z,4.71
2019-02-11T07:43:04.276Z,4.75
2019-02-11T07:46:19.725Z,4.69
2019-02-11T07:49:23.314Z,4.68
2019-02-11T07:52:27.119Z,4.77
2019-02-11T07:55:29.992Z,4.76
2019-02-11T07:58:32.751Z,4.69
2019-02-11T08:01:35.396Z,4.54
2019-02-11T08:04:37.987Z,4.53
2019-02-11T08:07:40.715Z,4.57
2019-02-11T08:10:43.352Z,4.63
2019-02-11T08:13:46.111Z,4.77
2019-02-11T08:16:48.938Z,4.79
2019-02-11T08:19:51.674Z,4.89
2019-02-11T08:22:54.265Z,4.95
2019-02-11T08:25:56.981Z,4.98
2019-02-11T08:28:59.734Z,5.04
2019-02-11T08:32:02.375Z,4.97
2019-02-11T08:35:05.260Z,5.16
2019-02-11T08:38:08.898Z,5.10
2019-02-11T08:41:11.683Z,5.08
2019-02-11T08:44:14.359Z,5.08
2019-02-11T08:47:16.959Z,4.96
2019-02-11T08:50:19.690Z,5.00
2019-02-11T08:53:22.376Z,4.89
2019-02-11T08:56:25.064Z,4.81
2019-02-11T08:59:27.778Z,4.98
2019-02-11T09:02:30.436Z,5.00
2019-02-11T09:05:33.011Z,4.98
2019-02-11T09:08:35.676Z,4.98
2019-02-11T09:11:39.315Z,5.24
2019-02-11T09:14:42.047Z,5.19
2019-02-11T09:17:44.690Z,5.41
2019-02-11T09:20:47.390Z,5.60
2019-02-11T09:23:50.117Z,5.65
2019-02-11T09:26:52.808Z,5.71
2019-02-11T09:29:55.435Z,5.81
2019-02-11T09:32:58.036Z,5.86
2019-02-11T09:36:00.649Z,5.86
2019-02-11T09:39:05.332Z,5.71
2019-02-11T09:42:08.021Z,5.89
2019-02-11T09:45:13.731Z,6.01
2019-02-11T09:48:16.365Z,5.76
2019-02-11T09:51:19.369Z,5.51
2019-02-11T09:54:21.951Z,5.76
2019-02-11T09:57:24.598Z,5.83
2019-02-11T10:00:27.560Z,6.05
2019-02-11T10:03:30.234Z,6.23
2019-02-11T10:06:32.871Z,6.41
2019-02-11T10:09:35.425Z,6.60
2019-02-11T10:12:38.050Z,6.53
2019-02-11T10:15:40.669Z,6.46
2019-02-11T10:18:43.296Z,6.55
2019-02-11T10:21:47.977Z,6.73
2019-02-11T10:24:50.605Z,6.60
2019-02-11T10:27:55.435Z,6.58
2019-02-11T10:30:58.064Z,6.82
2019-02-11T10:34:00.769Z,6.56
2019-02-11T10:37:03.420Z,6.58
2019-02-11T10:40:07.450Z,6.61
2019-02-11T10:43:10.070Z,6.66
2019-02-11T10:46:20.656Z,6.84
2019-02-11T10:49:17.259Z,6.71
2019-02-11T10:52:19.974Z,6.67
2019-02-11T10:55:22.622Z,6.74
2019-02-11T10:58:25.390Z,6.61
2019-02-11T11:01:29.054Z,6.71
2019-02-11T11:04:34.071Z,6.83
2019-02-11T11:07:36.758Z,6.76
2019-02-11T11:10:39.460Z,7.08
2019-02-11T11:13:42.056Z,7.28
2019-02-11T11:16:44.783Z,7.42
2019-02-11T11:19:48.469Z,7.25
2019-02-11T11:22:51.108Z,7.10
2019-02-11T11:25:54.255Z,7.08
2019-02-11T11:28:57.096Z,6.95
2019-02-11T11:31:59.762Z,6.83
2019-02-11T11:35:02.599Z,6.89
2019-02-11T11:38:06.335Z,7.20
2019-02-11T11:41:09.062Z,7.17
2019-02-11T11:44:12.714Z,6.43
2019-02-11T11:47:15.403Z,5.60
2019-02-11T11:50:18.074Z,5.24
2019-02-11T11:53:20.805Z,5.20
2019-02-11T11:56:23.460Z,5.24
2019-02-11T11:59:26.039Z,5.62
2019-02-11T12:02:28.866Z,5.69
2019-02-11T12:05:31.693Z,5.84
2019-02-11T12:08:34.506Z,5.99
2019-02-11T12:11:37.211Z,5.94
2019-02-11T12:14:39.949Z,5.08
2019-02-11T12:17:43.211Z,4.93
2019-02-11T12:20:46.744Z,4.75
2019-02-11T12:23:51.304Z,4.71
2019-02-11T12:26:54.023Z,4.62
2019-02-11T12:29:56.716Z,4.54
2019-02-11T12:32:59.530Z,4.58
2019-02-11T12:36:02.235Z,4.71
2019-02-11T12:39:04.936Z,4.86
2019-02-11T12:42:08.702Z,4.95
2019-02-11T12:45:13.567Z,5.10
2019-02-11T12:48:16.418Z,5.33
2019-02-11T12:51:19.142Z,5.42
2019-02-11T12:54:21.728Z,5.70
2019-02-11T12:57:24.437Z,5.97
2019-02-11T13:00:27.155Z,6.15
2019-02-11T13:03:29.862Z,6.19
2019-02-11T13:06:32.586Z,5.95
2019-02-11T13:09:35.360Z,5.82
2019-02-11T13:12:39.451Z,5.86
2019-02-11T13:15:59.886Z,5.96
2019-02-11T13:18:47.294Z,6.04
2019-02-11T13:21:50.002Z,6.05
2019-02-11T13:24:52.703Z,6.13
2019-02-11T13:27:55.441Z,6.41
2019-02-11T13:30:58.106Z,6.67
2019-02-11T13:34:00.881Z,6.83
2019-02-11T13:37:03.593Z,7.08
2019-02-11T13:40:06.968Z,7.09
2019-02-11T13:43:09.616Z,7.25
2019-02-11T13:46:12.594Z,7.23
2019-02-11T13:49:16.023Z,7.24
2019-02-11T13:52:18.858Z,7.01
2019-02-11T13:55:21.877Z,7.00
2019-02-11T13:58:24.651Z,7.11
2019-02-11T14:01:28.343Z,7.18
2019-02-11T14:04:31.050Z,7.13
2019-02-11T14:07:33.923Z,7.13
2019-02-11T14:10:36.749Z,7.14
2019-02-11T14:13:39.653Z,7.10
2019-02-11T14:16:42.478Z,7.17
2019-02-11T14:19:46.549Z,7.25
2019-02-11T14:22:49.290Z,6.94
2019-02-11T14:25:51.997Z,6.67
2019-02-11T14:28:54.684Z,6.48
2019-02-11T14:31:57.676Z,6.25
2019-02-11T14:35:00.792Z,6.16
2019-02-11T14:38:03.882Z,6.21
2019-02-11T14:41:06.732Z,6.20
2019-02-11T14:44:13.070Z,6.24
2019-02-11T14:47:14.401Z,6.25
2019-02-11T14:50:17.335Z,6.36
2019-02-11T14:53:20.202Z,6.24
2019-02-11T14:56:23.102Z,6.01
2019-02-11T14:59:25.801Z,5.97
2019-02-11T15:02:28.564Z,5.87
2019-02-11T15:05:31.320Z,5.84
2019-02-11T15:08:34.038Z,5.83
2019-02-11T15:11:36.637Z,5.92
2019-02-11T15:14:39.294Z,5.99
2019-02-11T15:17:42.113Z,5.86
2019-02-11T15:20:44.924Z,5.54
2019-02-11T15:23:47.583Z,5.37
2019-02-11T15:26:50.287Z,5.11
2019-02-11T15:29:52.890Z,5.02
2019-02-11T15:32:55.714Z,5.03
2019-02-11T15:35:58.483Z,4.98
2019-02-11T15:39:01.158Z,4.88
2019-02-11T15:42:04.031Z,4.82
2019-02-11T15:45:09.221Z,4.76
2019-02-11T15:48:11.873Z,4.71
2019-02-11T15:51:14.483Z,4.51
2019-02-11T15:54:17.317Z,4.46
2019-02-11T15:57:20.451Z,4.36
2019-02-11T16:00:23.207Z,4.35
2019-02-11T16:03:25.824Z,4.23
2019-02-11T16:06:28.533Z,4.19
2019-02-11T16:09:31.295Z,4.16
2019-02-11T16:12:34.118Z,3.99
2019-02-11T16:15:36.741Z,3.88
2019-02-11T16:18:39.351Z,3.90
2019-02-11T16:21:42.071Z,4.01
2019-02-11T16:24:44.827Z,3.93
2019-02-11T16:27:53.683Z,4.00
2019-02-11T16:30:56.456Z,3.90
2019-02-11T16:33:59.241Z,3.95
2019-02-11T16:37:02.123Z,3.76
2019-02-11T16:40:07.102Z,3.87
2019-02-11T16:43:09.685Z,3.68
2019-02-11T16:46:13.358Z,3.69
2019-02-11T16:49:16.110Z,3.62
2019-02-11T16:52:18.853Z,3.50
2019-02-11T16:55:21.433Z,3.38
2019-02-11T16:58:24.201Z,3.47
2019-02-11T17:01:26.863Z,3.77
2019-02-11T17:04:30.413Z,3.72
2019-02-11T17:07:41.346Z,3.77
2019-02-11T17:10:37.624Z,3.80
2019-02-11T17:13:40.210Z,3.88
2019-02-11T17:16:42.789Z,3.90
2019-02-11T17:19:45.497Z,3.95
2019-02-11T17:22:48.172Z,3.97
2019-02-11T17:25:51.002Z,4.04
2019-02-11T17:28:53.657Z,4.07
2019-02-11T17:31:56.370Z,4.16
2019-02-11T17:34:59.075Z,4.13
2019-02-11T17:38:01.672Z,4.04
2019-02-11T17:41:04.436Z,3.98
2019-02-11T17:44:07.182Z,4.06
2019-02-11T17:47:09.817Z,4.08
2019-02-11T17:50:12.518Z,4.06
2019-02-11T17:53:15.341Z,4.16
2019-02-11T17:56:18.146Z,4.14
2019-02-11T17:59:20.860Z,4.12
2019-02-11T18:02:23.707Z,4.13
2019-02-11T18:05:26.318Z,4.14
2019-02-11T18:08:29.161Z,4.06
2019-02-11T18:11:31.956Z,4.00
2019-02-11T18:14:34.926Z,3.91
2019-02-11T18:17:37.558Z,3.88
2019-02-11T18:20:40.269Z,3.89
2019-02-11T18:23:43.006Z,3.94
2019-02-11T18:26:45.678Z,4.03
2019-02-11T18:29:48.474Z,4.00
2019-02-11T18:32:51.200Z,4.13
2019-02-11T18:35:53.800Z,3.95
2019-02-11T18:38:58.355Z,3.73
2019-02-11T18:42:01.154Z,3.58
2019-02-11T18:45:12.211Z,3.46
2019-02-11T18:48:14.925Z,3.53
2019-02-11T18:51:17.722Z,3.53
2019-02-11T18:54:20.583Z,3.48
2019-02-11T18:57:23.362Z,3.47
2019-02-11T19:00:26.055Z,3.49
2019-02-11T19:03:28.803Z,3.45
2019-02-11T19:06:31.588Z,3.19
2019-02-11T19:09:34.284Z,3.18
2019-02-11T19:12:36.960Z,3.20
2019-02-11T19:15:39.701Z,3.23
2019-02-11T19:18:42.441Z,3.13
2019-02-11T19:21:45.055Z,3.12
2019-02-11T19:24:48.115Z,3.24
2019-02-11T19:27:50.880Z,3.34
2019-02-11T19:30:53.662Z,3.48
2019-02-11T19:33:56.450Z,3.49
2019-02-11T19:36:59.363Z,3.55
2019-02-11T19:40:02.222Z,3.62
2019-02-11T19:43:06.102Z,3.72
2019-02-11T19:46:08.807Z,3.72
2019-02-11T19:49:11.580Z,3.72
2019-02-11T19:52:14.252Z,3.76
2019-02-11T19:55:16.847Z,3.77
2019-02-11T19:58:19.511Z,3.73
2019-02-11T20:01:22.100Z,3.70
2019-02-11T20:04:24.746Z,3.69
2019-02-11T20:07:27.550Z,3.71
2019-02-11T20:10:31.613Z,3.73
2019-02-11T20:13:34.255Z,3.85
2019-02-11T20:16:37.019Z,3.89
2019-02-11T20:19:39.747Z,3.93
2019-02-11T20:22:42.406Z,3.83
2019-02-11T20:25:45.141Z,3.92
2019-02-11T20:28:48.061Z,3.88
2019-02-11T20:31:50.740Z,3.79
2019-02-11T20:34:53.503Z,3.89
2019-02-11T20:37:56.252Z,3.95
2019-02-11T20:40:59.378Z,3.88
2019-02-11T20:44:02.010Z,3.93
2019-02-11T20:47:04.719Z,3.92
2019-02-11T20:50:09.706Z,3.88
2019-02-11T20:53:12.250Z,3.91
2019-02-11T20:56:14.971Z,3.89
2019-02-11T20:59:17.643Z,3.94
2019-02-11T21:02:20.398Z,4.04
2019-02-11T21:05:23.191Z,4.03
2019-02-11T21:08:25.952Z,3.94
2019-02-11T21:11:28.691Z,3.93
2019-02-11T21:14:31.701Z,3.94
2019-02-11T21:17:34.580Z,4.04
2019-02-11T21:20:38.216Z,4.00
2019-02-11T21:23:40.965Z,3.91
2019-02-11T21:26:43.669Z,3.95
2019-02-11T21:29:46.427Z,3.93
2019-02-11T21:32:49.253Z,3.94
2019-02-11T21:35:52.125Z,3.99
2019-02-11T21:38:56.227Z,3.92
2019-02-11T21:41:58.870Z,3.98
2019-02-11T21:45:01.592Z,3.94
2019-02-11T21:48:04.205Z,4.02
2019-02-11T21:51:07.002Z,3.92
2019-02-11T21:54:09.707Z,3.95
2019-02-11T21:57:12.331Z,4.04
2019-02-11T22:00:16.672Z,3.93
2019-02-11T22:03:19.450Z,4.00
2019-02-11T22:06:22.141Z,3.99
2019-02-11T22:09:25.041Z,3.99
2019-02-11T22:12:27.785Z,3.95
2019-02-11T22:15:30.542Z,4.03
2019-02-11T22:18:33.225Z,3.97
2019-02-11T22:21:35.794Z,3.93
2019-02-11T22:24:38.526Z,3.91
2019-02-11T22:27:41.369Z,3.87
2019-02-11T22:30:44.842Z,3.93
2019-02-11T22:33:47.490Z,3.86
2019-02-11T22:36:50.359Z,3.82
2019-02-11T22:39:52.991Z,3.82
2019-02-11T22:42:55.811Z,3.74
2019-02-11T22:45:58.466Z,3.80
2019-02-11T22:49:01.164Z,3.88
2019-02-11T22:52:03.875Z,3.93
2019-02-11T22:55:07.481Z,3.93
2019-02-11T22:58:10.249Z,4.02
2019-02-11T23:01:14.071Z,4.10
2019-02-11T23:04:16.785Z,4.08
2019-02-11T23:07:19.471Z,4.14
2019-02-11T23:10:22.206Z,4.18
2019-02-11T23:13:24.915Z,4.23
2019-02-11T23:16:29.459Z,4.24
2019-02-11T23:19:32.054Z,4.23
2019-02-11T23:22:34.666Z,4.13
2019-02-11T23:25:37.401Z,4.07
2019-02-11T23:28:40.011Z,4.06
2019-02-11T23:31:42.638Z,4.10
2019-02-11T23:34:46.465Z,4.09
2019-02-11T23:37:49.155Z,3.99
2019-02-11T23:40:51.817Z,4.00
2019-02-11T23:43:54.586Z,3.93
2019-02-11T23:46:57.232Z,3.83
2019-02-11T23:49:59.852Z,3.79
2019-02-11T23:53:02.530Z,3.85
2019-02-11T23:56:05.301Z,3.93
2019-02-11T23:59:08.110Z,3.88
